Time;durP1;ratioP1;P1;durP2;ratioP2;P2;SDS_P1;SDS_P2;PMS_P1;PMS_P2;Temp;Humidity;BMP_temperature;BMP_pressure;BME280_temperature;BME280_humidity;BME280_pressure;Samples;Min_cycle;Max_cycle;Signal;HPM_P1;HPM_P2
2021/12/18 00:07:54;;;;;;;61.38;25.08;;;;;;;0.85;100.00;98106.41;20501547;23;20168;-71
2021/12/18 00:17:55;;;;;;;50.83;22.52;;;;;;;0.83;100.00;98103.16;20486011;23;20085;-81
2021/12/18 00:27:56;;;;;;;58.70;24.33;;;;;;;0.80;100.00;98098.31;20463319;28;20035;-82
2021/12/18 00:37:56;;;;;;;64.50;23.92;;;;;;;0.76;100.00;98089.22;20491315;28;20054;-80
2021/12/18 00:47:57;;;;;;;55.17;21.38;;;;;;;0.55;100.00;98093.34;20517999;28;20109;-81
2021/12/18 00:57:57;;;;;;;61.05;24.50;;;;;;;0.47;100.00;98087.34;20496533;28;20039;-80
2021/12/18 01:07:58;;;;;;;56.55;24.02;;;;;;;0.47;100.00;98082.97;20499727;28;20130;-83
2021/12/18 01:28:18;;;;;;;58.25;24.05;;;;;;;0.45;100.00;98082.34;20459451;28;21984;-83
2021/12/18 01:38:21;;;;;;;50.95;22.25;;;;;;;0.29;100.00;98085.88;20458321;28;20562;-84
2021/12/18 01:58:44;;;;;;;41.95;20.10;;;;;;;0.03;100.00;98088.03;20435129;28;20051;-79
2021/12/18 02:08:45;;;;;;;43.63;19.40;;;;;;;0.10;100.00;98081.94;20457621;28;20097;-84
2021/12/18 02:29:05;;;;;;;43.38;17.90;;;;;;;-0.03;100.00;98076.50;20499502;28;20406;-79
2021/12/18 02:39:23;;;;;;;33.00;15.52;;;;;;;-0.09;100.00;98077.19;20496967;28;20054;-82
2021/12/18 02:49:25;;;;;;;45.08;18.33;;;;;;;-0.03;100.00;98066.06;20491369;28;20810;-84
2021/12/18 02:59:25;;;;;;;43.15;17.98;;;;;;;0.20;100.00;98066.06;20461474;28;20456;-80
2021/12/18 03:09:54;;;;;;;38.03;17.55;;;;;;;0.24;100.00;98072.53;20465423;28;20042;-84
2021/12/18 03:30:23;;;;;;;37.83;18.13;;;;;;;0.25;100.00;98062.94;20460272;28;20055;-81
2021/12/18 03:41:13;;;;;;;49.85;21.58;;;;;;;-0.03;100.00;98066.06;20467393;28;20101;-82
2021/12/18 03:51:14;;;;;;;46.38;19.10;;;;;;;-0.07;100.00;98072.59;20450548;28;20042;-83
2021/12/18 04:01:14;;;;;;;40.13;16.95;;;;;;;-0.02;100.00;98071.13;20455526;28;20068;-81
2021/12/18 04:11:14;;;;;;;40.50;15.55;;;;;;;-0.09;100.00;98070.16;20455300;28;20117;-81
2021/12/18 04:21:15;;;;;;;36.15;16.25;;;;;;;-0.11;100.00;98066.94;20459744;28;20132;-83
2021/12/18 04:31:16;;;;;;;36.33;16.30;;;;;;;-0.14;100.00;98067.28;20456555;28;20059;-82
2021/12/18 04:41:22;;;;;;;93.88;21.52;;;;;;;0.02;100.00;98074.19;20450203;28;20045;-81
2021/12/18 04:51:22;;;;;;;;;;;;;;;0.22;100.00;98084.13;20449718;28;20493;-84
2021/12/18 05:01:23;;;;;;;144.98;22.65;;;;;;;0.37;100.00;98085.00;20452344;28;19933;-84
2021/12/18 05:11:23;;;;;;;303.73;33.08;;;;;;;0.39;100.00;98080.44;20446655;28;20043;-83
2021/12/18 05:21:24;;;;;;;258.98;26.48;;;;;;;0.46;100.00;98086.56;20436569;28;20274;-83
2021/12/18 05:31:24;;;;;;;197.15;25.27;;;;;;;0.60;100.00;98083.16;20445026;28;22100;-84
2021/12/18 05:52:41;;;;;;;123.22;25.23;;;;;;;0.52;100.00;98090.25;20450173;28;20059;-83
2021/12/18 06:02:42;;;;;;;213.13;24.92;;;;;;;0.55;100.00;98087.28;20438504;28;20049;-84
2021/12/18 06:12:42;;;;;;;152.20;20.63;;;;;;;0.50;100.00;98087.81;20434525;28;20130;-81
2021/12/18 06:22:42;;;;;;;155.25;19.35;;;;;;;0.48;100.00;98094.19;20445870;28;20192;-81
2021/12/18 06:32:43;;;;;;;71.65;16.63;;;;;;;0.39;100.00;98101.28;20449533;28;20058;-83
2021/12/18 06:42:43;;;;;;;30.13;11.57;;;;;;;0.33;100.00;98088.94;20483052;28;20134;-81
2021/12/18 06:52:43;;;;;;;30.58;11.55;;;;;;;0.06;100.00;98085.88;20489916;28;20660;-81
2021/12/18 07:02:44;;;;;;;83.85;14.30;;;;;;;-0.01;100.00;98100.56;20484870;28;20153;-83
2021/12/18 07:12:47;;;;;;;68.22;12.57;;;;;;;-0.19;100.00;98081.81;20438660;28;20050;-81
2021/12/18 07:22:47;;;;;;;44.20;12.35;;;;;;;-0.38;100.00;98089.06;20454036;28;20058;-82
2021/12/18 07:32:48;;;;;;;63.85;13.25;;;;;;;-0.33;100.00;98089.34;20461283;28;20057;-83
2021/12/18 07:42:48;;;;;;;27.85;12.43;;;;;;;-0.48;100.00;98083.25;20459099;28;20101;-81
2021/12/18 07:52:50;;;;;;;26.67;11.20;;;;;;;-0.45;100.00;98081.13;20438011;28;20062;-81
2021/12/18 08:02:52;;;;;;;22.90;10.07;;;;;;;-0.31;100.00;98073.56;20451242;28;20264;-82
2021/12/18 08:12:52;;;;;;;24.88;10.32;;;;;;;-0.07;100.00;98059.59;20450673;28;21737;-82
2021/12/18 08:22:53;;;;;;;28.77;11.65;;;;;;;0.15;100.00;98058.78;20486984;28;20670;-82
2021/12/18 08:32:54;;;;;;;22.85;9.43;;;;;;;0.48;100.00;98062.91;20539323;28;20458;-82
2021/12/18 08:42:57;;;;;;;33.15;12.77;;;;;;;0.67;100.00;98059.00;20509603;28;20031;-82
2021/12/18 08:52:57;;;;;;;29.35;12.45;;;;;;;1.11;100.00;98073.88;20491404;28;20374;-82
2021/12/18 09:02:59;;;;;;;26.90;11.40;;;;;;;1.39;100.00;98067.03;20452894;28;20267;-82
2021/12/18 09:12:59;;;;;;;23.40;9.73;;;;;;;1.63;100.00;98053.81;20453841;28;20061;-82
2021/12/18 09:23:01;;;;;;;22.58;10.40;;;;;;;1.85;100.00;98063.31;20462519;28;20043;-83
2021/12/18 09:33:02;;;;;;;26.88;10.98;;;;;;;2.22;100.00;98066.69;20474143;28;20125;-83
2021/12/18 09:43:03;;;;;;;25.42;11.13;;;;;;;2.57;100.00;98058.94;20453704;28;20047;-84
2021/12/18 09:53:06;;;;;;;25.25;10.93;;;;;;;2.97;100.00;98051.34;20465638;28;20101;-85
2021/12/18 10:03:07;;;;;;;23.00;10.70;;;;;;;3.38;100.00;98040.88;20476051;28;20490;-83
2021/12/18 10:13:09;;;;;;;26.55;11.90;;;;;;;3.67;100.00;98030.31;20456070;28;20053;-84
2021/12/18 10:23:10;;;;;;;20.23;9.05;;;;;;;4.03;100.00;98033.41;20462164;28;20093;-85
2021/12/18 10:33:12;;;;;;;19.55;9.13;;;;;;;4.19;100.00;98020.94;20464007;28;20051;-87
2021/12/18 10:43:15;;;;;;;24.70;10.48;;;;;;;4.51;100.00;98008.00;20435214;28;20568;-84
2021/12/18 10:53:17;;;;;;;17.80;8.57;;;;;;;4.86;100.00;98005.91;20468432;28;20061;-85
2021/12/18 11:03:20;;;;;;;15.07;7.85;;;;;;;5.34;100.00;97987.19;20479497;28;20058;-86
2021/12/18 11:13:45;;;;;;;13.93;7.35;;;;;;;5.70;100.00;97977.91;20487847;28;20543;-84
2021/12/18 11:23:54;;;;;;;15.48;7.88;;;;;;;5.69;100.00;97962.34;20465504;28;20210;-86
2021/12/18 11:33:55;;;;;;;14.45;7.57;;;;;;;5.92;100.00;97952.03;20482288;28;20142;-86
2021/12/18 11:43:56;;;;;;;13.88;6.85;;;;;;;6.36;100.00;97947.69;20481199;28;20031;-84
2021/12/18 11:53:57;;;;;;;17.02;8.13;;;;;;;6.31;100.00;97941.44;20474652;28;20054;-85
2021/12/18 12:03:58;;;;;;;16.95;8.23;;;;;;;6.55;100.00;97927.44;20475848;28;20069;-84
2021/12/18 12:14:04;;;;;;;18.70;7.78;;;;;;;6.66;100.00;97919.84;20481430;28;20674;-86
2021/12/18 12:24:06;;;;;;;14.40;7.07;;;;;;;7.09;100.00;97903.13;20453904;28;20099;-85
2021/12/18 12:34:24;;;;;;;16.50;7.78;;;;;;;7.58;100.00;97896.78;20459785;28;20080;-83
2021/12/18 12:44:32;;;;;;;16.23;8.20;;;;;;;8.47;100.00;97898.59;20469280;28;20129;-84
2021/12/18 12:54:45;;;;;;;14.63;8.13;;;;;;;8.87;100.00;97889.91;20470031;28;20046;-84
2021/12/18 13:04:46;;;;;;;9.77;5.07;;;;;;;9.44;100.00;97882.00;20459214;28;20050;-85
2021/12/18 13:14:47;;;;;;;11.60;6.00;;;;;;;8.13;100.00;97884.34;20472748;28;20162;-84
2021/12/18 13:25:22;;;;;;;12.27;6.57;;;;;;;8.20;100.00;97874.50;20462817;28;20047;-85
2021/12/18 13:35:25;;;;;;;10.93;5.55;;;;;;;11.34;100.00;97854.59;20403744;28;20050;-85
2021/12/18 13:45:26;;;;;;;10.23;5.10;;;;;;;12.90;100.00;97843.69;20476116;28;20078;-86
2021/12/18 13:55:33;;;;;;;10.13;4.78;;;;;;;12.62;100.00;97834.28;20455068;28;20045;-85
2021/12/18 14:05:37;;;;;;;12.88;6.20;;;;;;;9.62;100.00;97846.59;20469439;28;20051;-85
2021/12/18 14:15:38;;;;;;;10.25;5.30;;;;;;;8.34;100.00;97856.56;20466254;28;20047;-84
2021/12/18 14:25:38;;;;;;;11.40;5.88;;;;;;;7.64;100.00;97852.88;20465292;28;20533;-85
2021/12/18 14:35:49;;;;;;;14.73;6.93;;;;;;;7.21;100.00;97854.72;20461456;28;20042;-85
2021/12/18 14:45:49;;;;;;;15.05;7.35;;;;;;;6.40;100.00;97854.09;20453860;28;20498;-85
2021/12/18 14:56:00;;;;;;;18.25;7.72;;;;;;;5.77;100.00;97856.91;20456416;28;20043;-84
2021/12/18 15:06:15;;;;;;;15.55;6.53;;;;;;;5.07;100.00;97862.22;20439682;28;20062;-85
2021/12/18 15:16:26;;;;;;;15.98;8.63;;;;;;;4.56;100.00;97859.41;20470601;28;20054;-86
2021/12/18 15:26:28;;;;;;;14.30;6.88;;;;;;;3.98;100.00;97862.78;20465368;28;20038;-84
2021/12/18 15:36:29;;;;;;;11.23;5.45;;;;;;;3.58;100.00;97865.41;20445319;28;20129;-83
2021/12/18 15:46:31;;;;;;;11.35;5.60;;;;;;;3.18;100.00;97862.72;20468709;28;20061;-84
2021/12/18 15:56:31;;;;;;;34.00;9.85;;;;;;;3.04;100.00;97860.28;20477812;28;20047;-85
2021/12/18 16:06:32;;;;;;;43.65;9.00;;;;;;;3.04;100.00;97881.22;20472930;28;20057;-81
2021/12/18 16:16:32;;;;;;;58.72;11.73;;;;;;;3.00;100.00;97888.66;20476142;28;20054;-83
2021/12/18 16:26:33;;;;;;;36.50;9.73;;;;;;;3.05;100.00;97898.56;20523346;28;20077;-83
2021/12/18 16:36:36;;;;;;;42.78;9.07;;;;;;;3.05;100.00;97898.56;20510550;28;20298;-85
2021/12/18 16:46:37;;;;;;;19.60;8.27;;;;;;;3.05;100.00;97894.13;20527306;28;20593;-82
2021/12/18 16:56:37;;;;;;;12.75;6.57;;;;;;;3.08;100.00;97892.91;20531820;28;20043;-82
2021/12/18 17:06:40;;;;;;;18.98;5.68;;;;;;;3.00;100.00;97891.28;20516067;28;20047;-82
2021/12/18 17:16:40;;;;;;;27.75;5.80;;;;;;;2.95;100.00;97875.38;20520692;28;20054;-82
2021/12/18 17:26:41;;;;;;;13.93;6.15;;;;;;;2.90;100.00;97881.19;20495037;28;20038;-81
2021/12/18 17:36:43;;;;;;;13.40;5.47;;;;;;;2.83;100.00;97885.59;20512465;28;20541;-82
2021/12/18 17:46:44;;;;;;;15.20;6.65;;;;;;;2.77;100.00;97865.44;20501008;28;20047;-82
2021/12/18 17:56:44;;;;;;;13.30;5.32;;;;;;;2.82;100.00;97870.91;20501077;28;20513;-84
2021/12/18 18:06:45;;;;;;;32.22;5.95;;;;;;;2.84;100.00;97875.91;20535229;28;20069;-81
2021/12/18 18:16:45;;;;;;;25.67;7.10;;;;;;;2.63;100.00;97880.28;20506475;28;20047;-81
2021/12/18 18:26:45;;;;;;;40.47;8.73;;;;;;;2.63;100.00;97882.88;20489811;28;20130;-81
2021/12/18 18:36:46;;;;;;;28.95;5.97;;;;;;;2.57;100.00;97881.03;20491314;28;20053;-81
2021/12/18 18:46:49;;;;;;;16.92;5.10;;;;;;;2.38;100.00;97874.72;20511902;28;20047;-81
2021/12/18 18:56:49;;;;;;;15.52;7.43;;;;;;;2.46;100.00;97889.47;20524531;28;20034;-80
2021/12/18 19:06:50;;;;;;;18.38;7.90;;;;;;;2.40;100.00;97891.81;20477386;28;20604;-82
2021/12/18 19:16:51;;;;;;;11.60;5.20;;;;;;;2.35;100.00;97885.56;20480271;28;20239;-83
2021/12/18 19:26:51;;;;;;;10.05;4.32;;;;;;;2.28;100.00;97882.09;20465263;28;20045;-82
2021/12/18 19:36:52;;;;;;;11.23;4.95;;;;;;;2.35;100.00;97875.09;20468609;28;20158;-84
2021/12/18 19:46:52;;;;;;;15.90;4.95;;;;;;;2.09;100.00;97871.34;20470179;28;20050;-81
2021/12/18 19:56:53;;;;;;;20.45;6.95;;;;;;;1.94;100.00;97866.22;20465591;28;20443;-83
2021/12/18 20:06:53;;;;;;;16.17;6.22;;;;;;;1.76;100.00;97860.66;20452363;28;20452;-83
2021/12/18 20:16:56;;;;;;;19.52;7.00;;;;;;;1.79;100.00;97874.13;20464781;28;20172;-81
2021/12/18 20:26:59;;;;;;;21.27;7.03;;;;;;;1.78;100.00;97867.31;20456253;28;20072;-81
2021/12/18 20:37:06;;;;;;;34.55;12.88;;;;;;;1.87;100.00;97867.97;20486490;28;20407;-82
2021/12/18 20:47:07;;;;;;;20.35;7.65;;;;;;;1.99;100.00;97852.56;20446176;28;20051;-83
2021/12/18 20:57:08;;;;;;;25.05;8.57;;;;;;;1.99;100.00;97856.00;20485049;28;20477;-83
2021/12/18 21:07:13;;;;;;;23.83;9.35;;;;;;;2.07;100.00;97860.25;20492307;28;20077;-84
2021/12/18 21:17:13;;;;;;;30.08;10.05;;;;;;;2.14;100.00;97861.09;20506630;28;20054;-81
2021/12/18 21:27:14;;;;;;;22.45;8.13;;;;;;;2.19;100.00;97843.03;20497770;28;20035;-86
2021/12/18 21:37:19;;;;;;;21.58;7.40;;;;;;;2.25;100.00;97851.09;20500049;28;20237;-83
2021/12/18 21:47:20;;;;;;;26.27;8.60;;;;;;;2.22;100.00;97850.50;20475463;28;20047;-84
2021/12/18 21:57:20;;;;;;;22.70;7.70;;;;;;;2.24;100.00;97842.47;20464997;28;20049;-83
2021/12/18 22:07:20;;;;;;;21.13;8.00;;;;;;;2.35;100.00;97841.94;20459133;28;20299;-83
2021/12/18 22:17:21;;;;;;;18.13;7.18;;;;;;;2.38;100.00;97840.72;20479109;28;20624;-84
2021/12/18 22:27:22;;;;;;;20.30;8.57;;;;;;;2.36;100.00;97840.91;20498478;28;20053;-83
2021/12/18 22:37:23;;;;;;;10.95;5.13;;;;;;;2.38;100.00;97835.50;20509011;28;20146;-82
2021/12/18 22:47:23;;;;;;;14.40;5.97;;;;;;;2.33;100.00;97830.03;20526273;28;20047;-85
2021/12/18 22:57:23;;;;;;;13.05;4.78;;;;;;;2.31;100.00;97819.78;20510518;28;20069;-82
2021/12/18 23:07:24;;;;;;;9.98;4.22;;;;;;;2.30;100.00;97823.38;20521274;23;20436;-71
2021/12/18 23:17:38;;;;;;;11.48;4.95;;;;;;;2.22;100.00;97823.53;20381542;28;20039;-71
2021/12/18 23:27:39;;;;;;;12.32;5.68;;;;;;;2.21;100.00;97803.66;20391812;28;20027;-72
2021/12/18 23:37:40;;;;;;;13.75;6.38;;;;;;;2.22;100.00;97805.25;20422054;28;20507;-72
2021/12/18 23:47:40;;;;;;;14.32;6.68;;;;;;;2.16;100.00;97806.03;20425968;28;20105;-72
2021/12/18 23:57:41;;;;;;;17.55;7.70;;;;;;;2.18;100.00;97789.13;20429011;28;20055;-72
